TimeEDT,TemperatureF,Dew PointF,Humidity,Sea Level PressureIn,VisibilityMPH,Wind Direction,Wind SpeedMPH,Gust SpeedMPH,PrecipitationIn,Events,Conditions,WindDirDegrees,DateUTC
12:08 AM,60.8,57.2,88,29.27,10.0,ESE,18.4,28.8,N/A,,Overcast,110,2012-10-30 04:08:00
12:16 AM,60.8,57.2,88,29.28,10.0,ESE,18.4,28.8,0.00,Rain,Light Rain,120,2012-10-30 04:16:00
12:33 AM,60.8,57.2,88,29.29,10.0,ESE,12.7,27.6,0.00,,Overcast,120,2012-10-30 04:33:00
12:54 AM,60.1,57.9,93,29.30,10.0,ESE,12.7,19.6,0.00,,Overcast,120,2012-10-30 04:54:00
1:11 AM,60.8,57.2,88,29.30,6.0,SE,12.7,23.0,0.00,Rain,Light Rain,130,2012-10-30 05:11:00
1:54 AM,59.0,57.9,96,29.31,4.0,SE,18.4,25.3,0.07,Rain,Heavy Rain,130,2012-10-30 05:54:00
2:05 AM,60.8,57.2,88,29.32,10.0,ESE,12.7,23.0,0.00,Rain,Light Rain,120,2012-10-30 06:05:00
2:21 AM,59.0,57.2,94,29.33,10.0,SE,15.0,23.0,0.00,,Overcast,130,2012-10-30 06:21:00
2:54 AM,59.0,57.0,93,29.34,10.0,ESE,9.2,20.7,0.00,Rain,Light Rain,120,2012-10-30 06:54:00
3:54 AM,57.9,57.0,97,29.35,10.0,ESE,12.7,21.9,0.01,Rain,Light Rain,120,2012-10-30 07:54:00
4:54 AM,57.0,55.0,93,29.37,10.0,ESE,9.2,-,0.00,,Overcast,120,2012-10-30 08:54:00
5:32 AM,57.2,55.4,94,29.38,10.0,Variable,5.8,-,0.00,Rain,Light Rain,0,2012-10-30 09:32:00
5:39 AM,57.2,53.6,88,29.40,10.0,ESE,9.2,-,0.00,Rain,Light Rain,120,2012-10-30 09:39:00
5:54 AM,57.0,55.0,93,29.40,9.0,ESE,5.8,-,0.01,Rain,Light Rain,110,2012-10-30 09:54:00
6:54 AM,57.0,55.0,93,29.44,10.0,ESE,8.1,-,0.01,,Overcast,110,2012-10-30 10:54:00
7:10 AM,55.4,55.4,100,29.44,10.0,ESE,10.4,17.3,N/A,Rain,Light Rain,110,2012-10-30 11:10:00
7:29 AM,55.4,53.6,94,29.44,10.0,ESE,9.2,-,0.00,,Overcast,120,2012-10-30 11:29:00
7:54 AM,55.9,54.0,93,29.47,10.0,ESE,9.2,-,0.00,,Overcast,120,2012-10-30 11:54:00
8:28 AM,55.4,53.6,94,29.49,10.0,ESE,6.9,-,0.01,Rain,Light Rain,120,2012-10-30 12:28:00
8:54 AM,55.9,55.0,97,29.49,5.0,ESE,3.5,-,0.01,,Overcast,120,2012-10-30 12:54:00
9:54 AM,57.0,55.0,93,29.52,10.0,SE,13.8,18.4,N/A,,Overcast,130,2012-10-30 13:54:00
10:06 AM,57.2,55.4,94,29.52,10.0,ESE,11.5,21.9,N/A,,Overcast,120,2012-10-30 14:06:00
10:25 AM,57.2,55.4,94,29.53,10.0,SE,10.4,-,N/A,,Overcast,140,2012-10-30 14:25:00
10:36 AM,59.0,55.4,88,29.54,10.0,SE,11.5,-,N/A,,Overcast,130,2012-10-30 14:36:00
10:54 AM,59.0,55.0,87,29.54,10.0,ESE,10.4,-,N/A,,Overcast,120,2012-10-30 14:54:00
11:01 AM,59.0,55.4,88,29.54,10.0,SE,12.7,17.3,N/A,,Overcast,130,2012-10-30 15:01:00
11:08 AM,59.0,55.4,88,29.54,10.0,SE,10.4,-,N/A,,Overcast,130,2012-10-30 15:08:00
11:30 AM,60.8,55.4,82,29.54,10.0,SE,11.5,-,N/A,,Overcast,130,2012-10-30 15:30:00
11:40 AM,60.8,55.4,82,29.54,10.0,SE,12.7,-,N/A,,Overcast,130,2012-10-30 15:40:00
11:54 AM,60.1,53.1,78,29.54,10.0,SE,15.0,21.9,N/A,,Overcast,130,2012-10-30 15:54:00
12:15 PM,60.8,53.6,77,29.54,10.0,SE,16.1,23.0,N/A,,Overcast,130,2012-10-30 16:15:00
12:54 PM,62.1,52.0,70,29.55,10.0,SE,12.7,21.9,N/A,,Overcast,140,2012-10-30 16:54:00
1:54 PM,63.0,50.0,63,29.54,10.0,SE,16.1,-,N/A,,Overcast,140,2012-10-30 17:54:00
2:54 PM,62.1,51.1,67,29.54,10.0,SE,12.7,20.7,N/A,,Overcast,130,2012-10-30 18:54:00
3:54 PM,63.0,51.1,65,29.53,10.0,ESE,12.7,-,N/A,,Overcast,110,2012-10-30 19:54:00
4:54 PM,60.1,53.1,78,29.54,10.0,SE,11.5,-,0.01,Rain,Light Rain,140,2012-10-30 20:54:00
5:08 PM,59.0,53.6,82,29.55,2.0,SE,10.4,-,0.02,Rain,Heavy Rain,140,2012-10-30 21:08:00
5:54 PM,57.9,54.0,87,29.55,2.0,SSE,12.7,-,0.05,Rain,Light Rain,150,2012-10-30 21:54:00
6:10 PM,57.2,53.6,88,29.55,8.0,SSE,9.2,-,0.01,Rain,Light Rain,150,2012-10-30 22:10:00
6:54 PM,55.9,53.1,90,29.55,10.0,ESE,4.6,-,0.04,Rain,Light Rain,120,2012-10-30 22:54:00
7:32 PM,55.4,53.6,94,29.53,10.0,East,4.6,-,0.00,,Overcast,80,2012-10-30 23:32:00
7:48 PM,55.4,53.6,94,29.54,2.5,East,4.6,-,0.00,Rain,Light Rain,100,2012-10-30 23:48:00
7:50 PM,55.4,53.6,94,29.54,1.8,East,4.6,-,0.00,Rain,Light Rain,100,2012-10-30 23:50:00
7:54 PM,55.0,54.0,96,29.55,1.0,ESE,4.6,-,0.00,Rain,Light Rain,120,2012-10-30 23:54:00
8:04 PM,55.4,53.6,94,29.53,2.5,East,6.9,-,0.03,Rain,Heavy Rain,100,2012-10-31 00:04:00
8:06 PM,55.4,53.6,94,29.52,2.5,East,4.6,-,0.04,Rain,Heavy Rain,80,2012-10-31 00:06:00
8:14 PM,55.4,53.6,94,29.52,1.8,East,4.6,-,0.07,Rain,Light Rain,80,2012-10-31 00:14:00
8:34 PM,53.6,53.6,100,29.51,4.0,ENE,4.6,-,0.09,Rain,Light Rain,70,2012-10-31 00:34:00
8:50 PM,53.6,53.6,100,29.51,9.0,ENE,3.5,-,0.10,Rain,Light Rain,70,2012-10-31 00:50:00
8:54 PM,54.0,53.1,97,29.52,10.0,Calm,Calm,-,0.10,Rain,Light Rain,0,2012-10-31 00:54:00
9:42 PM,53.6,51.8,94,29.55,8.0,SE,5.8,-,0.00,,Mostly Cloudy,130,2012-10-31 01:42:00
9:54 PM,54.0,53.1,97,29.55,3.0,SE,6.9,-,0.00,,Overcast,140,2012-10-31 01:54:00
10:12 PM,53.6,53.6,100,29.55,2.0,SE,6.9,-,N/A,,Overcast,130,2012-10-31 02:12:00
10:31 PM,53.6,53.6,100,29.55,1.2,ESE,6.9,-,N/A,,Overcast,120,2012-10-31 02:31:00
10:50 PM,53.6,53.6,100,29.53,0.5,ESE,4.6,-,N/A,Fog,Fog,110,2012-10-31 02:50:00
10:54 PM,54.0,53.1,97,29.54,0.5,ESE,4.6,-,N/A,Fog,Fog,110,2012-10-31 02:54:00
11:54 PM,53.1,53.1,100,29.54,0.8,ESE,4.6,-,N/A,,Mist,110,2012-10-31 03:54:00